首页
METAR-TAF:

METAR-TAF

机场 :

格洛斯特, 英格兰

纬度: 51-54N, 经度: 002-10W, 海拔: 29米

当前天气观测

该预报发布于7小时和36分钟前的17:50 UTC
风速5节,风向
温度 8°C
湿度 100%
气压 1013 hPa
能見度: 6000
多云层高于800英尺
多云层高于1500英尺
小雨, 毛毛雨

METAR: EGBJ 171750Z 36005KT 6000 -RADZ BKN008 BKN015 08/08 Q1013

时间: 01:26 (01:26 UTC)

预报

该预报发布于7小时和56分钟前的17:30 UTC
预报有效从17日的 17点(UTC)到 17日的 19点(UTC)
风速3节,风向西北
能見度: 6000
多云层高于1200英尺
短暂存在
从 17日的 17点(UTC)到 17日的 19点(UTC)
能見度: 4000
多云层高于500英尺
雨, 毛毛雨, 轻雾
几率 40% :
短暂存在
从 17日的 17点(UTC)到 17日的 19点(UTC)
能見度: 1200
多云层高于200英尺
浅雾

TAF: EGBJ 171730Z 1717/1719 32003KT 6000 BKN012 TEMPO 1717/1719 4000 RADZ BR BKN005 PROB40 TEMPO 1717/1719 1200 MIFG BKN002

超过4000个机场的气象观测和天气预报(METAR&TAF报告)。

可查询的气象台以黄色和红色小点在地图上表示。

将鼠标移到小点上方,可查看气象台名称。

然后点击查看天气观测和预报。

如需切换地图:点击带黑十字的绿色按钮放大地图;点击带横线的绿色按钮缩小地图;或者点击绿色箭头查看邻近地区的地图。


METAR-TAF: